sensor_id;sensor_type;location;lat;lon;timestamp;pressure;altitude;pressure_sealevel;temperature;humidity
49843;BME280;55559;48.898;9.184;2022-09-09T00:01:28;98027.34;;;15.32;100.00
49843;BME280;55559;48.898;9.184;2022-09-09T00:04:00;98032.66;;;15.40;100.00
49843;BME280;55559;48.898;9.184;2022-09-09T00:06:42;98038.66;;;15.42;100.00
49843;BME280;55559;48.898;9.184;2022-09-09T00:09:12;98038.25;;;15.53;100.00
49843;BME280;55559;48.898;9.184;2022-09-09T00:11:46;98028.94;;;15.64;100.00
49843;BME280;55559;48.898;9.184;2022-09-09T00:14:23;98033.78;;;15.69;100.00
49843;BME280;55559;48.898;9.184;2022-09-09T00:16:56;98036.16;;;15.63;100.00
49843;BME280;55559;48.898;9.184;2022-09-09T00:19:32;98025.91;;;15.67;100.00
49843;BME280;55559;48.898;9.184;2022-09-09T00:22:15;98026.16;;;15.57;100.00
49843;BME280;55559;48.898;9.184;2022-09-09T00:24:45;98022.09;;;15.61;100.00
49843;BME280;55559;48.898;9.184;2022-09-09T00:27:21;98023.41;;;15.66;100.00
49843;BME280;55559;48.898;9.184;2022-09-09T00:29:54;98020.09;;;15.63;100.00
49843;BME280;55559;48.898;9.184;2022-09-09T00:32:24;98014.13;;;15.76;100.00
49843;BME280;55559;48.898;9.184;2022-09-09T00:34:56;98019.34;;;15.70;100.00
49843;BME280;55559;48.898;9.184;2022-09-09T00:37:26;98019.22;;;15.63;100.00
49843;BME280;55559;48.898;9.184;2022-09-09T00:39:59;98023.75;;;15.62;100.00
49843;BME280;55559;48.898;9.184;2022-09-09T00:42:38;98011.94;;;15.57;100.00
49843;BME280;55559;48.898;9.184;2022-09-09T00:45:25;98018.94;;;15.58;100.00
49843;BME280;55559;48.898;9.184;2022-09-09T00:48:03;98020.31;;;15.54;100.00
49843;BME280;55559;48.898;9.184;2022-09-09T00:50:44;98030.13;;;15.61;100.00
49843;BME280;55559;48.898;9.184;2022-09-09T00:53:27;98028.00;;;15.57;100.00
49843;BME280;55559;48.898;9.184;2022-09-09T00:56:04;98023.13;;;15.60;100.00
49843;BME280;55559;48.898;9.184;2022-09-09T00:58:34;98017.41;;;15.63;100.00
49843;BME280;55559;48.898;9.184;2022-09-09T01:01:06;98021.09;;;15.62;100.00
49843;BME280;55559;48.898;9.184;2022-09-09T01:03:38;98023.94;;;15.61;100.00
49843;BME280;55559;48.898;9.184;2022-09-09T01:06:16;98034.13;;;15.66;100.00
49843;BME280;55559;48.898;9.184;2022-09-09T01:09:02;98030.25;;;15.68;100.00
49843;BME280;55559;48.898;9.184;2022-09-09T01:11:37;98029.06;;;15.71;100.00
49843;BME280;55559;48.898;9.184;2022-09-09T01:14:16;98019.34;;;15.70;100.00
49843;BME280;55559;48.898;9.184;2022-09-09T01:16:48;98026.56;;;15.69;100.00
49843;BME280;55559;48.898;9.184;2022-09-09T01:19:20;98019.34;;;15.70;100.00
49843;BME280;55559;48.898;9.184;2022-09-09T01:21:59;98022.50;;;15.73;100.00
49843;BME280;55559;48.898;9.184;2022-09-09T01:24:38;98021.81;;;15.79;100.00
49843;BME280;55559;48.898;9.184;2022-09-09T01:27:19;98014.97;;;15.77;100.00
49843;BME280;55559;48.898;9.184;2022-09-09T01:29:49;98022.31;;;15.75;100.00
49843;BME280;55559;48.898;9.184;2022-09-09T01:32:38;98024.16;;;15.74;100.00
49843;BME280;55559;48.898;9.184;2022-09-09T01:35:08;98037.56;;;15.74;100.00
49843;BME280;55559;48.898;9.184;2022-09-09T01:37:39;98030.03;;;15.78;100.00
49843;BME280;55559;48.898;9.184;2022-09-09T01:40:08;98026.69;;;15.76;100.00
49843;BME280;55559;48.898;9.184;2022-09-09T01:42:38;98041.91;;;15.84;100.00
49843;BME280;55559;48.898;9.184;2022-09-09T01:45:06;98041.16;;;15.90;100.00
49843;BME280;55559;48.898;9.184;2022-09-09T01:47:34;98042.19;;;15.89;100.00
49843;BME280;55559;48.898;9.184;2022-09-09T01:50:32;98044.19;;;15.87;100.00
49843;BME280;55559;48.898;9.184;2022-09-09T01:53:00;98046.34;;;15.91;100.00
49843;BME280;55559;48.898;9.184;2022-09-09T01:55:33;98032.81;;;15.85;100.00
49843;BME280;55559;48.898;9.184;2022-09-09T01:58:17;98039.34;;;15.90;100.00
49843;BME280;55559;48.898;9.184;2022-09-09T02:00:56;98036.81;;;15.89;100.00
49843;BME280;55559;48.898;9.184;2022-09-09T02:03:32;98036.31;;;15.85;100.00
49843;BME280;55559;48.898;9.184;2022-09-09T02:06:17;98033.97;;;15.90;100.00
49843;BME280;55559;48.898;9.184;2022-09-09T02:08:50;98034.50;;;15.86;100.00
49843;BME280;55559;48.898;9.184;2022-09-09T02:11:21;98030.16;;;15.85;100.00
49843;BME280;55559;48.898;9.184;2022-09-09T02:14:04;98018.94;;;15.81;100.00
49843;BME280;55559;48.898;9.184;2022-09-09T02:16:37;98020.66;;;15.74;100.00
49843;BME280;55559;48.898;9.184;2022-09-09T02:19:09;98029.06;;;15.71;100.00
49843;BME280;55559;48.898;9.184;2022-09-09T02:21:52;98036.03;;;15.57;100.00
49843;BME280;55559;48.898;9.184;2022-09-09T02:24:21;98040.72;;;15.55;100.00
49843;BME280;55559;48.898;9.184;2022-09-09T02:27:01;98037.56;;;15.51;100.00
49843;BME280;55559;48.898;9.184;2022-09-09T02:29:35;98038.47;;;15.43;100.00
49843;BME280;55559;48.898;9.184;2022-09-09T02:32:06;98034.00;;;15.36;100.00
49843;BME280;55559;48.898;9.184;2022-09-09T02:34:40;98040.44;;;15.27;100.00
49843;BME280;55559;48.898;9.184;2022-09-09T02:37:11;98036.28;;;15.16;100.00
49843;BME280;55559;48.898;9.184;2022-09-09T02:39:43;98041.53;;;15.09;100.00
49843;BME280;55559;48.898;9.184;2022-09-09T02:42:14;98036.84;;;15.11;100.00
49843;BME280;55559;48.898;9.184;2022-09-09T02:44:45;98032.84;;;15.07;100.00
49843;BME280;55559;48.898;9.184;2022-09-09T02:47:27;98037.91;;;14.94;100.00
49843;BME280;55559;48.898;9.184;2022-09-09T02:50:08;98032.44;;;14.87;100.00
49843;BME280;55559;48.898;9.184;2022-09-09T02:52:46;98017.56;;;14.84;100.00
49843;BME280;55559;48.898;9.184;2022-09-09T02:55:20;98022.38;;;14.89;100.00
49843;BME280;55559;48.898;9.184;2022-09-09T02:57:54;98020.41;;;14.83;100.00
49843;BME280;55559;48.898;9.184;2022-09-09T03:00:26;98017.59;;;14.76;100.00
49843;BME280;55559;48.898;9.184;2022-09-09T03:02:57;98015.91;;;14.75;100.00
49843;BME280;55559;48.898;9.184;2022-09-09T03:05:25;98010.44;;;14.68;100.00
49843;BME280;55559;48.898;9.184;2022-09-09T03:07:54;98007.94;;;14.67;100.00
49843;BME280;55559;48.898;9.184;2022-09-09T03:10:22;98005.31;;;14.59;100.00
49843;BME280;55559;48.898;9.184;2022-09-09T03:12:50;98001.25;;;14.55;100.00
49843;BME280;55559;48.898;9.184;2022-09-09T03:15:18;97999.75;;;14.60;100.00
49843;BME280;55559;48.898;9.184;2022-09-09T03:17:48;98005.97;;;14.61;100.00
49843;BME280;55559;48.898;9.184;2022-09-09T03:20:15;97990.56;;;14.63;100.00
49843;BME280;55559;48.898;9.184;2022-09-09T03:22:43;97990.56;;;14.63;100.00
49843;BME280;55559;48.898;9.184;2022-09-09T03:25:11;97982.53;;;14.55;100.00
49843;BME280;55559;48.898;9.184;2022-09-09T03:27:38;97991.94;;;14.59;100.00
49843;BME280;55559;48.898;9.184;2022-09-09T03:30:22;98007.97;;;14.50;100.00
49843;BME280;55559;48.898;9.184;2022-09-09T03:32:51;98011.00;;;14.47;100.00
49843;BME280;55559;48.898;9.184;2022-09-09T03:35:19;98008.84;;;14.35;100.00
49843;BME280;55559;48.898;9.184;2022-09-09T03:37:46;98024.22;;;14.41;100.00
49843;BME280;55559;48.898;9.184;2022-09-09T03:40:15;98018.25;;;14.30;100.00
49843;BME280;55559;48.898;9.184;2022-09-09T03:42:46;98029.59;;;14.32;100.00
49843;BME280;55559;48.898;9.184;2022-09-09T03:45:14;98025.25;;;14.31;100.00
49843;BME280;55559;48.898;9.184;2022-09-09T03:47:43;98035.59;;;14.35;100.00
49843;BME280;55559;48.898;9.184;2022-09-09T03:50:12;98024.72;;;14.44;100.00
49843;BME280;55559;48.898;9.184;2022-09-09T03:52:44;98030.53;;;14.56;100.00
49843;BME280;55559;48.898;9.184;2022-09-09T03:55:20;98023.31;;;14.73;100.00
49843;BME280;55559;48.898;9.184;2022-09-09T03:57:47;98026.78;;;14.82;100.00
49843;BME280;55559;48.898;9.184;2022-09-09T04:00:16;98029.09;;;14.85;100.00
49843;BME280;55559;48.898;9.184;2022-09-09T04:02:47;98025.91;;;14.90;100.00
49843;BME280;55559;48.898;9.184;2022-09-09T04:05:17;98018.34;;;14.93;100.00
49843;BME280;55559;48.898;9.184;2022-09-09T04:07:46;98018.00;;;14.96;100.00
49843;BME280;55559;48.898;9.184;2022-09-09T04:10:14;98022.81;;;15.01;100.00
49843;BME280;55559;48.898;9.184;2022-09-09T04:12:43;98018.31;;;15.01;100.00
49843;BME280;55559;48.898;9.184;2022-09-09T04:15:10;98012.63;;;15.04;100.00
49843;BME280;55559;48.898;9.184;2022-09-09T04:17:39;98024.50;;;15.02;100.00
49843;BME280;55559;48.898;9.184;2022-09-09T04:20:06;98025.00;;;14.97;100.00
49843;BME280;55559;48.898;9.184;2022-09-09T04:22:38;98024.03;;;14.98;100.00
49843;BME280;55559;48.898;9.184;2022-09-09T04:25:07;98030.69;;;15.02;100.00
49843;BME280;55559;48.898;9.184;2022-09-09T04:27:35;98034.34;;;15.10;100.00
49843;BME280;55559;48.898;9.184;2022-09-09T04:30:03;98029.34;;;15.06;100.00
49843;BME280;55559;48.898;9.184;2022-09-09T04:32:32;98032.31;;;15.12;100.00
49843;BME280;55559;48.898;9.184;2022-09-09T04:35:00;98036.97;;;15.18;100.00
49843;BME280;55559;48.898;9.184;2022-09-09T04:37:27;98027.69;;;15.29;100.00
49843;BME280;55559;48.898;9.184;2022-09-09T04:39:56;98023.47;;;15.34;100.00
49843;BME280;55559;48.898;9.184;2022-09-09T04:42:25;98033.25;;;15.50;100.00
49843;BME280;55559;48.898;9.184;2022-09-09T04:44:53;98037.03;;;15.56;100.00
49843;BME280;55559;48.898;9.184;2022-09-09T04:47:21;98040.53;;;15.56;100.00
49843;BME280;55559;48.898;9.184;2022-09-09T04:49:49;98041.22;;;15.58;100.00
49843;BME280;55559;48.898;9.184;2022-09-09T04:52:17;98039.38;;;15.59;100.00
49843;BME280;55559;48.898;9.184;2022-09-09T04:54:45;98048.41;;;15.58;100.00
49843;BME280;55559;48.898;9.184;2022-09-09T04:57:14;98038.25;;;15.53;100.00
49843;BME280;55559;48.898;9.184;2022-09-09T04:59:41;98046.00;;;15.48;100.00
49843;BME280;55559;48.898;9.184;2022-09-09T05:02:09;98043.19;;;15.41;100.00
49843;BME280;55559;48.898;9.184;2022-09-09T05:04:37;98047.22;;;15.37;100.00
49843;BME280;55559;48.898;9.184;2022-09-09T05:07:05;98059.78;;;15.37;100.00
49843;BME280;55559;48.898;9.184;2022-09-09T05:09:32;98053.09;;;15.33;100.00
49843;BME280;55559;48.898;9.184;2022-09-09T05:12:01;98056.94;;;15.38;100.00
49843;BME280;55559;48.898;9.184;2022-09-09T05:14:36;98061.25;;;15.39;100.00
49843;BME280;55559;48.898;9.184;2022-09-09T05:17:05;98059.91;;;15.43;100.00
49843;BME280;55559;48.898;9.184;2022-09-09T05:19:34;98061.88;;;15.50;100.00
49843;BME280;55559;48.898;9.184;2022-09-09T05:22:02;98065.22;;;15.52;100.00
49843;BME280;55559;48.898;9.184;2022-09-09T05:24:38;98064.66;;;15.56;100.00
49843;BME280;55559;48.898;9.184;2022-09-09T05:27:06;98067.00;;;15.59;100.00
49843;BME280;55559;48.898;9.184;2022-09-09T05:29:40;98070.28;;;15.70;100.00
49843;BME280;55559;48.898;9.184;2022-09-09T05:32:10;98074.13;;;15.75;100.00
49843;BME280;55559;48.898;9.184;2022-09-09T05:34:37;98067.56;;;15.78;100.00
49843;BME280;55559;48.898;9.184;2022-09-09T05:37:05;98069.53;;;15.84;100.00
49843;BME280;55559;48.898;9.184;2022-09-09T05:39:33;98072.16;;;15.92;100.00
49843;BME280;55559;48.898;9.184;2022-09-09T05:42:03;98074.78;;;16.01;100.00
49843;BME280;55559;48.898;9.184;2022-09-09T05:44:32;98069.50;;;16.07;100.00
49843;BME280;55559;48.898;9.184;2022-09-09T05:47:02;98071.75;;;16.18;100.00
49843;BME280;55559;48.898;9.184;2022-09-09T05:49:30;98077.56;;;16.22;100.00
49843;BME280;55559;48.898;9.184;2022-09-09T05:51:58;98076.66;;;16.30;100.00
49843;BME280;55559;48.898;9.184;2022-09-09T05:54:26;98081.56;;;16.26;100.00
49843;BME280;55559;48.898;9.184;2022-09-09T05:56:54;98074.81;;;16.30;100.00
49843;BME280;55559;48.898;9.184;2022-09-09T05:59:22;98084.00;;;16.36;100.00
49843;BME280;55559;48.898;9.184;2022-09-09T06:01:52;98088.63;;;16.42;100.00
49843;BME280;55559;48.898;9.184;2022-09-09T06:04:30;98093.09;;;16.50;100.00
49843;BME280;55559;48.898;9.184;2022-09-09T06:06:59;98082.63;;;16.55;100.00
49843;BME280;55559;48.898;9.184;2022-09-09T06:09:27;98085.22;;;16.63;100.00
49843;BME280;55559;48.898;9.184;2022-09-09T06:11:56;98083.38;;;16.64;100.00
49843;BME280;55559;48.898;9.184;2022-09-09T06:14:24;98083.38;;;16.64;100.00
49843;BME280;55559;48.898;9.184;2022-09-09T06:16:55;98087.53;;;16.66;100.00
49843;BME280;55559;48.898;9.184;2022-09-09T06:19:27;98083.81;;;16.67;100.00
49843;BME280;55559;48.898;9.184;2022-09-09T06:21:59;98074.41;;;16.71;100.00
49843;BME280;55559;48.898;9.184;2022-09-09T06:24:28;98080.63;;;16.87;100.00
49843;BME280;55559;48.898;9.184;2022-09-09T06:26:57;98077.38;;;16.91;100.00
49843;BME280;55559;48.898;9.184;2022-09-09T06:29:28;98082.81;;;16.98;100.00
49843;BME280;55559;48.898;9.184;2022-09-09T06:31:56;98095.97;;;17.08;100.00
49843;BME280;55559;48.898;9.184;2022-09-09T06:34:26;98090.03;;;17.13;100.00
49843;BME280;55559;48.898;9.184;2022-09-09T06:36:56;98092.06;;;17.25;100.00
49843;BME280;55559;48.898;9.184;2022-09-09T06:39:26;98091.09;;;17.33;100.00
49843;BME280;55559;48.898;9.184;2022-09-09T06:41:54;98086.75;;;17.32;100.00
49843;BME280;55559;48.898;9.184;2022-09-09T06:44:42;98108.19;;;17.25;100.00
49843;BME280;55559;48.898;9.184;2022-09-09T06:47:14;98106.25;;;17.19;100.00
49843;BME280;55559;48.898;9.184;2022-09-09T06:49:42;98096.69;;;17.17;100.00
49843;BME280;55559;48.898;9.184;2022-09-09T06:52:10;98097.44;;;17.25;100.00
49843;BME280;55559;48.898;9.184;2022-09-09T06:54:39;98108.09;;;17.34;100.00
49843;BME280;55559;48.898;9.184;2022-09-09T06:57:07;98105.47;;;17.62;100.00
49843;BME280;55559;48.898;9.184;2022-09-09T06:59:35;98099.47;;;17.81;100.00
49843;BME280;55559;48.898;9.184;2022-09-09T07:02:02;98100.41;;;17.89;100.00
49843;BME280;55559;48.898;9.184;2022-09-09T07:04:31;98099.59;;;17.88;100.00
49843;BME280;55559;48.898;9.184;2022-09-09T07:06:58;98094.19;;;17.88;100.00
49843;BME280;55559;48.898;9.184;2022-09-09T07:09:27;98091.22;;;17.83;100.00
49843;BME280;55559;48.898;9.184;2022-09-09T07:11:56;98093.06;;;17.82;100.00
49843;BME280;55559;48.898;9.184;2022-09-09T07:14:26;98088.16;;;17.86;100.00
49843;BME280;55559;48.898;9.184;2022-09-09T07:16:58;98101.03;;;17.91;100.00
49843;BME280;55559;48.898;9.184;2022-09-09T07:19:31;98094.72;;;17.98;100.00
49843;BME280;55559;48.898;9.184;2022-09-09T07:22:01;98102.03;;;18.33;100.00
49843;BME280;55559;48.898;9.184;2022-09-09T07:24:30;98098.69;;;18.31;100.00
49843;BME280;55559;48.898;9.184;2022-09-09T07:26:59;98102.38;;;18.51;100.00
49843;BME280;55559;48.898;9.184;2022-09-09T07:29:27;98099.66;;;18.51;100.00
49843;BME280;55559;48.898;9.184;2022-09-09T07:31:54;98089.56;;;18.25;100.00
49843;BME280;55559;48.898;9.184;2022-09-09T07:34:27;98094.69;;;18.48;100.00
49843;BME280;55559;48.898;9.184;2022-09-09T07:36:55;98101.09;;;18.47;100.00
49843;BME280;55559;48.898;9.184;2022-09-09T07:39:24;98097.53;;;18.40;100.00
49843;BME280;55559;48.898;9.184;2022-09-09T07:41:53;98095.50;;;18.20;100.00
49843;BME280;55559;48.898;9.184;2022-09-09T07:44:24;98085.06;;;18.32;100.00
49843;BME280;55559;48.898;9.184;2022-09-09T07:47:03;98096.16;;;18.51;100.00
49843;BME280;55559;48.898;9.184;2022-09-09T07:49:36;98101.59;;;18.57;100.00
49843;BME280;55559;48.898;9.184;2022-09-09T07:52:05;98095.97;;;18.52;100.00
49843;BME280;55559;48.898;9.184;2022-09-09T07:54:33;98093.38;;;18.37;100.00
49843;BME280;55559;48.898;9.184;2022-09-09T07:57:04;98102.59;;;18.56;100.00
49843;BME280;55559;48.898;9.184;2022-09-09T07:59:36;98110.88;;;18.55;100.00
49843;BME280;55559;48.898;9.184;2022-09-09T08:02:04;98104.19;;;18.72;100.00
49843;BME280;55559;48.898;9.184;2022-09-09T08:04:34;98107.53;;;18.81;100.00
49843;BME280;55559;48.898;9.184;2022-09-09T08:07:03;98102.03;;;18.89;100.00
49843;BME280;55559;48.898;9.184;2022-09-09T08:09:36;98097.72;;;19.02;100.00
49843;BME280;55559;48.898;9.184;2022-09-09T08:12:09;98092.31;;;18.95;100.00
49843;BME280;55559;48.898;9.184;2022-09-09T08:14:40;98103.75;;;19.04;100.00
49843;BME280;55559;48.898;9.184;2022-09-09T08:17:08;98115.16;;;18.71;100.00
49843;BME280;55559;48.898;9.184;2022-09-09T08:19:36;98116.13;;;18.91;100.00
49843;BME280;55559;48.898;9.184;2022-09-09T08:22:09;98110.69;;;18.85;100.00
49843;BME280;55559;48.898;9.184;2022-09-09T08:24:39;98112.28;;;19.14;100.00
49843;BME280;55559;48.898;9.184;2022-09-09T08:27:08;98110.34;;;19.36;100.00
49843;BME280;55559;48.898;9.184;2022-09-09T08:29:37;98114.13;;;19.55;100.00
49843;BME280;55559;48.898;9.184;2022-09-09T08:32:07;98119.78;;;19.74;100.00
49843;BME280;55559;48.898;9.184;2022-09-09T08:34:36;98125.84;;;19.89;98.67
49843;BME280;55559;48.898;9.184;2022-09-09T08:37:08;98124.19;;;20.01;96.52
49843;BME280;55559;48.898;9.184;2022-09-09T08:39:39;98124.03;;;20.30;90.55
49843;BME280;55559;48.898;9.184;2022-09-09T08:42:21;98126.94;;;20.28;90.87
49843;BME280;55559;48.898;9.184;2022-09-09T08:45:12;98114.25;;;20.15;92.76
49843;BME280;55559;48.898;9.184;2022-09-09T08:47:51;98108.66;;;20.30;91.83
49843;BME280;55559;48.898;9.184;2022-09-09T08:50:26;98106.59;;;20.32;92.91
49843;BME280;55559;48.898;9.184;2022-09-09T08:53:02;98105.53;;;20.53;93.73
49843;BME280;55559;48.898;9.184;2022-09-09T08:55:39;98097.41;;;20.53;89.06
49843;BME280;55559;48.898;9.184;2022-09-09T08:58:14;98102.63;;;20.75;89.38
49843;BME280;55559;48.898;9.184;2022-09-09T09:00:57;98108.44;;;20.78;89.24
49843;BME280;55559;48.898;9.184;2022-09-09T09:03:35;98102.31;;;21.10;85.70
49843;BME280;55559;48.898;9.184;2022-09-09T09:06:21;98117.56;;;21.43;84.92
49843;BME280;55559;48.898;9.184;2022-09-09T09:09:00;98113.47;;;21.33;84.23
49843;BME280;55559;48.898;9.184;2022-09-09T09:11:35;98112.69;;;22.03;79.18
49843;BME280;55559;48.898;9.184;2022-09-09T09:14:08;98114.63;;;22.53;70.59
49843;BME280;55559;48.898;9.184;2022-09-09T09:16:43;98112.56;;;22.74;66.00
49843;BME280;55559;48.898;9.184;2022-09-09T09:19:16;98116.88;;;22.31;65.78
49843;BME280;55559;48.898;9.184;2022-09-09T09:21:51;98121.88;;;21.96;68.16
49843;BME280;55559;48.898;9.184;2022-09-09T09:24:27;98113.31;;;21.22;71.19
49843;BME280;55559;48.898;9.184;2022-09-09T09:27:00;98119.69;;;21.34;69.61
49843;BME280;55559;48.898;9.184;2022-09-09T09:29:34;98110.66;;;21.08;76.96
49843;BME280;55559;48.898;9.184;2022-09-09T09:32:03;98093.41;;;20.96;70.73
49843;BME280;55559;48.898;9.184;2022-09-09T09:34:33;98100.94;;;21.39;68.27
49843;BME280;55559;48.898;9.184;2022-09-09T09:37:01;98100.25;;;21.12;69.08
49843;BME280;55559;48.898;9.184;2022-09-09T09:39:33;98106.09;;;20.95;73.32
49843;BME280;55559;48.898;9.184;2022-09-09T09:42:10;98102.75;;;21.07;74.10
49843;BME280;55559;48.898;9.184;2022-09-09T09:44:41;98104.16;;;21.68;69.93
49843;BME280;55559;48.898;9.184;2022-09-09T09:47:15;98088.56;;;22.27;68.53
49843;BME280;55559;48.898;9.184;2022-09-09T09:49:55;98095.50;;;22.48;66.62
49843;BME280;55559;48.898;9.184;2022-09-09T09:52:26;98081.72;;;22.68;63.49
49843;BME280;55559;48.898;9.184;2022-09-09T09:54:58;98076.69;;;22.53;66.28
49843;BME280;55559;48.898;9.184;2022-09-09T09:57:28;98074.00;;;22.72;65.54
49843;BME280;55559;48.898;9.184;2022-09-09T10:00:04;98078.22;;;22.86;67.78
49843;BME280;55559;48.898;9.184;2022-09-09T10:02:46;98078.50;;;22.96;66.72
49843;BME280;55559;48.898;9.184;2022-09-09T10:05:21;98072.16;;;23.09;66.12
49843;BME280;55559;48.898;9.184;2022-09-09T10:08:03;98069.88;;;23.25;65.43
49843;BME280;55559;48.898;9.184;2022-09-09T10:10:42;98073.16;;;23.45;64.42
49843;BME280;55559;48.898;9.184;2022-09-09T10:13:18;98063.16;;;23.57;59.99
49843;BME280;55559;48.898;9.184;2022-09-09T10:15:59;98057.66;;;23.76;59.33
49843;BME280;55559;48.898;9.184;2022-09-09T10:18:48;98062.59;;;23.67;59.20
49843;BME280;55559;48.898;9.184;2022-09-09T10:21:46;98067.81;;;23.69;57.24
49843;BME280;55559;48.898;9.184;2022-09-09T10:27:23;98068.63;;;23.69;55.61
49843;BME280;55559;48.898;9.184;2022-09-09T10:29:58;98062.72;;;24.03;55.07
49843;BME280;55559;48.898;9.184;2022-09-09T10:32:40;98064.09;;;24.47;53.54
49843;BME280;55559;48.898;9.184;2022-09-09T10:35:18;98075.41;;;23.78;51.98
49843;BME280;55559;48.898;9.184;2022-09-09T10:41:11;98082.25;;;24.47;52.53
49843;BME280;55559;48.898;9.184;2022-09-09T10:43:50;98084.09;;;22.39;57.79
49843;BME280;55559;48.898;9.184;2022-09-09T10:46:29;98100.59;;;22.06;61.57
49843;BME280;55559;48.898;9.184;2022-09-09T10:49:11;98091.25;;;21.70;63.11
49843;BME280;55559;48.898;9.184;2022-09-09T10:51:51;98081.31;;;21.89;65.04
49843;BME280;55559;48.898;9.184;2022-09-09T10:54:33;98088.09;;;21.28;66.93
49843;BME280;55559;48.898;9.184;2022-09-09T10:57:08;98089.72;;;21.49;66.09
49843;BME280;55559;48.898;9.184;2022-09-09T10:59:42;98082.88;;;21.33;68.75
49843;BME280;55559;48.898;9.184;2022-09-09T11:02:14;98086.94;;;21.10;69.58
49843;BME280;55559;48.898;9.184;2022-09-09T11:04:46;98089.72;;;20.84;73.27
49843;BME280;55559;48.898;9.184;2022-09-09T11:07:24;98097.63;;;20.58;73.97
49843;BME280;55559;48.898;9.184;2022-09-09T11:09:58;98099.50;;;20.44;77.19
49843;BME280;55559;48.898;9.184;2022-09-09T11:12:30;98090.34;;;20.72;77.91
49843;BME280;55559;48.898;9.184;2022-09-09T11:15:03;98086.84;;;20.65;79.18
49843;BME280;55559;48.898;9.184;2022-09-09T11:17:38;98092.44;;;20.63;81.77
49843;BME280;55559;48.898;9.184;2022-09-09T11:20:11;98106.16;;;20.35;90.70
49843;BME280;55559;48.898;9.184;2022-09-09T11:22:43;98107.41;;;20.19;91.32
49843;BME280;55559;48.898;9.184;2022-09-09T11:25:16;98122.13;;;19.28;96.36
49843;BME280;55559;48.898;9.184;2022-09-09T11:27:50;98126.81;;;19.13;100.00
49843;BME280;55559;48.898;9.184;2022-09-09T11:30:22;98119.19;;;18.60;100.00
49843;BME280;55559;48.898;9.184;2022-09-09T11:36:40;98144.72;;;18.64;100.00
49843;BME280;55559;48.898;9.184;2022-09-09T11:39:27;98135.50;;;18.80;100.00
49843;BME280;55559;48.898;9.184;2022-09-09T11:42:07;98126.47;;;18.88;100.00
49843;BME280;55559;48.898;9.184;2022-09-09T11:44:43;98118.38;;;18.88;100.00
49843;BME280;55559;48.898;9.184;2022-09-09T11:47:20;98113.34;;;19.13;100.00
49843;BME280;55559;48.898;9.184;2022-09-09T11:49:50;98114.72;;;19.02;100.00
49843;BME280;55559;48.898;9.184;2022-09-09T11:52:24;98115.34;;;18.98;100.00
49843;BME280;55559;48.898;9.184;2022-09-09T11:54:54;98098.97;;;18.99;100.00
49843;BME280;55559;48.898;9.184;2022-09-09T11:57:30;98112.94;;;18.81;100.00
49843;BME280;55559;48.898;9.184;2022-09-09T11:59:59;98099.84;;;18.78;100.00
49843;BME280;55559;48.898;9.184;2022-09-09T12:02:28;98102.38;;;19.21;98.72
49843;BME280;55559;48.898;9.184;2022-09-09T12:05:00;98092.25;;;19.85;98.40
49843;BME280;55559;48.898;9.184;2022-09-09T12:07:36;98085.16;;;19.84;93.74
49843;BME280;55559;48.898;9.184;2022-09-09T12:10:20;98079.59;;;20.32;86.55
49843;BME280;55559;48.898;9.184;2022-09-09T12:12:50;98073.44;;;19.43;86.32
49843;BME280;55559;48.898;9.184;2022-09-09T12:15:24;98070.22;;;20.21;84.91
49843;BME280;55559;48.898;9.184;2022-09-09T12:17:55;98071.03;;;20.69;76.43
49843;BME280;55559;48.898;9.184;2022-09-09T12:20:30;98076.91;;;20.19;80.41
49843;BME280;55559;48.898;9.184;2022-09-09T12:23:15;98086.69;;;21.18;77.27
49843;BME280;55559;48.898;9.184;2022-09-09T12:29:02;98078.44;;;22.41;65.87
49843;BME280;55559;48.898;9.184;2022-09-09T12:31:35;98073.00;;;22.66;62.89
49843;BME280;55559;48.898;9.184;2022-09-09T12:34:11;98067.19;;;22.62;59.17
49843;BME280;55559;48.898;9.184;2022-09-09T12:36:42;98071.38;;;22.15;61.84
49843;BME280;55559;48.898;9.184;2022-09-09T12:39:18;98070.09;;;22.42;61.60
49843;BME280;55559;48.898;9.184;2022-09-09T12:41:53;98075.84;;;22.53;61.35
49843;BME280;55559;48.898;9.184;2022-09-09T12:44:26;98081.22;;;22.78;67.08
49843;BME280;55559;48.898;9.184;2022-09-09T12:46:56;98083.94;;;22.78;68.19
49843;BME280;55559;48.898;9.184;2022-09-09T12:49:30;98083.56;;;22.93;67.46
49843;BME280;55559;48.898;9.184;2022-09-09T12:52:03;98076.13;;;22.44;64.72
49843;BME280;55559;48.898;9.184;2022-09-09T12:54:33;98078.59;;;22.46;63.01
49843;BME280;55559;48.898;9.184;2022-09-09T12:57:03;98065.44;;;22.50;64.46
49843;BME280;55559;48.898;9.184;2022-09-09T12:59:37;98062.97;;;22.48;65.22
49843;BME280;55559;48.898;9.184;2022-09-09T13:02:18;98067.31;;;21.99;63.92
49843;BME280;55559;48.898;9.184;2022-09-09T13:04:46;98055.88;;;22.22;65.58
49843;BME280;55559;48.898;9.184;2022-09-09T13:07:16;98054.53;;;22.56;61.84
49843;BME280;55559;48.898;9.184;2022-09-09T13:09:44;98062.16;;;22.66;61.71
49843;BME280;55559;48.898;9.184;2022-09-09T13:12:15;98059.97;;;22.75;59.35
49843;BME280;55559;48.898;9.184;2022-09-09T13:14:48;98068.41;;;22.85;61.33
49843;BME280;55559;48.898;9.184;2022-09-09T13:17:20;98060.59;;;22.58;61.44
49843;BME280;55559;48.898;9.184;2022-09-09T13:19:49;98054.72;;;22.98;61.62
49843;BME280;55559;48.898;9.184;2022-09-09T13:22:29;98044.28;;;23.63;59.56
49843;BME280;55559;48.898;9.184;2022-09-09T13:25:00;98055.78;;;23.34;60.17
49843;BME280;55559;48.898;9.184;2022-09-09T13:27:31;98044.72;;;22.99;61.29
49843;BME280;55559;48.898;9.184;2022-09-09T13:30:01;98039.63;;;23.70;58.56
49843;BME280;55559;48.898;9.184;2022-09-09T13:32:28;98035.34;;;24.04;57.28
49843;BME280;55559;48.898;9.184;2022-09-09T13:34:58;98036.31;;;24.45;54.36